createdAt,value
2023-02-09T00:00:09.578Z,8.00
2023-02-09T00:02:37.782Z,9.13
2023-02-09T00:05:04.316Z,7.57
2023-02-09T00:07:30.794Z,8.20
2023-02-09T00:09:57.158Z,11.03
2023-02-09T00:12:42.163Z,8.70
2023-02-09T00:15:08.901Z,7.80
2023-02-09T00:17:36.281Z,9.93
2023-02-09T00:20:05.522Z,8.27
2023-02-09T00:22:31.943Z,11.43
2023-02-09T00:24:58.516Z,7.97
2023-02-09T00:27:25.019Z,8.60
2023-02-09T00:29:51.446Z,8.47
2023-02-09T00:32:17.948Z,7.47
2023-02-09T00:34:44.532Z,9.17
2023-02-09T00:37:10.935Z,8.93
2023-02-09T00:39:37.415Z,11.83
2023-02-09T00:42:06.715Z,8.27
2023-02-09T00:44:38.732Z,8.90
2023-02-09T00:47:07.051Z,8.90
2023-02-09T00:49:33.820Z,9.57
2023-02-09T00:52:00.294Z,8.40
2023-02-09T00:54:27.267Z,9.33
2023-02-09T00:56:53.688Z,9.23
2023-02-09T00:59:20.020Z,8.87
2023-02-09T01:01:46.451Z,8.80
2023-02-09T01:04:12.911Z,9.60
2023-02-09T01:06:39.445Z,9.87
2023-02-09T01:09:05.953Z,8.53
2023-02-09T01:11:32.429Z,7.63
2023-02-09T01:14:00.137Z,7.57
2023-02-09T01:16:28.979Z,9.97
2023-02-09T01:18:56.015Z,9.30
2023-02-09T01:21:23.286Z,9.53
2023-02-09T01:23:49.940Z,10.33
2023-02-09T01:26:17.454Z,9.93
2023-02-09T01:28:44.050Z,8.17
2023-02-09T01:31:43.781Z,10.03
2023-02-09T01:34:13.184Z,8.17
2023-02-09T01:36:39.662Z,9.73
2023-02-09T01:39:06.199Z,6.87
2023-02-09T01:41:33.627Z,9.17
2023-02-09T01:44:06.982Z,9.57
2023-02-09T01:46:36.164Z,9.17
2023-02-09T01:49:13.758Z,9.13
2023-02-09T01:52:11.264Z,9.33
2023-02-09T01:54:40.777Z,10.50
2023-02-09T01:57:11.767Z,8.93
2023-02-09T01:59:40.096Z,9.47
2023-02-09T02:02:07.367Z,9.27
2023-02-09T02:04:34.592Z,10.80
2023-02-09T02:07:13.564Z,9.40
2023-02-09T02:09:40.656Z,8.90
2023-02-09T02:12:07.186Z,11.77
2023-02-09T02:14:35.139Z,11.47
2023-02-09T02:17:10.451Z,9.27
2023-02-09T02:19:48.986Z,10.93
2023-02-09T02:22:27.499Z,11.57
2023-02-09T02:25:22.028Z,10.77
2023-02-09T02:28:14.732Z,11.33
2023-02-09T02:31:10.355Z,10.03
2023-02-09T02:33:57.253Z,10.57
2023-02-09T02:36:45.711Z,11.33
2023-02-09T02:39:22.821Z,9.33
2023-02-09T02:42:21.133Z,9.33
2023-02-09T02:45:18.017Z,11.27
2023-02-09T02:47:54.945Z,11.23
2023-02-09T02:50:27.148Z,11.00
2023-02-09T02:52:57.719Z,10.90
2023-02-09T02:55:27.648Z,10.83
2023-02-09T02:57:58.629Z,12.90
2023-02-09T03:00:31.824Z,10.00
2023-02-09T03:03:03.934Z,11.03
2023-02-09T03:05:31.020Z,13.00
2023-02-09T03:07:57.455Z,11.83
2023-02-09T03:10:34.540Z,14.20
2023-02-09T03:13:10.008Z,9.63
2023-02-09T03:15:42.558Z,9.57
2023-02-09T03:18:21.304Z,10.37
2023-02-09T03:20:52.646Z,9.37
2023-02-09T03:23:56.455Z,12.37
2023-02-09T03:26:30.549Z,11.23
2023-02-09T03:28:59.299Z,10.77
2023-02-09T03:31:28.398Z,12.13
2023-02-09T03:33:57.281Z,9.17
2023-02-09T03:36:25.540Z,10.13
2023-02-09T03:38:51.963Z,11.07
2023-02-09T03:41:18.411Z,13.90
2023-02-09T03:44:03.478Z,11.10
2023-02-09T03:46:29.923Z,11.60
2023-02-09T03:48:56.348Z,10.57
2023-02-09T03:51:22.778Z,11.47
2023-02-09T03:53:49.106Z,11.10
2023-02-09T03:56:15.525Z,11.33
2023-02-09T03:58:42.121Z,9.63
2023-02-09T04:01:10.659Z,10.27
2023-02-09T04:03:39.615Z,11.07
2023-02-09T04:06:06.355Z,10.40
2023-02-09T04:08:33.173Z,11.23
2023-02-09T04:10:59.993Z,11.13
2023-02-09T04:13:26.609Z,10.80
2023-02-09T04:15:53.130Z,11.00
2023-02-09T04:18:20.010Z,12.03
2023-02-09T04:20:46.922Z,10.50
2023-02-09T04:23:13.885Z,13.33
2023-02-09T04:25:40.246Z,13.30
2023-02-09T04:28:06.774Z,11.20
2023-02-09T04:30:33.284Z,11.80
2023-02-09T04:32:59.658Z,13.10
2023-02-09T04:35:26.150Z,11.87
2023-02-09T04:37:52.483Z,10.53
2023-02-09T04:40:19.283Z,10.03
2023-02-09T04:42:46.500Z,12.97
2023-02-09T04:45:13.088Z,12.73
2023-02-09T04:47:39.576Z,10.83
2023-02-09T04:50:06.283Z,12.73
2023-02-09T04:52:32.673Z,13.10
2023-02-09T04:54:59.157Z,10.97
2023-02-09T04:57:44.357Z,12.33
2023-02-09T05:00:11.472Z,13.30
2023-02-09T05:02:37.928Z,13.50
2023-02-09T05:05:04.560Z,11.87
2023-02-09T05:07:31.172Z,12.10
2023-02-09T05:09:57.512Z,13.90
2023-02-09T05:12:23.947Z,12.30
2023-02-09T05:14:50.359Z,11.87
2023-02-09T05:17:20.886Z,13.80
2023-02-09T05:19:48.215Z,12.50
2023-02-09T05:22:15.351Z,18.40
2023-02-09T05:24:41.749Z,12.13
2023-02-09T05:27:08.125Z,14.57
2023-02-09T05:29:34.697Z,13.77
2023-02-09T05:32:01.103Z,11.23
2023-02-09T05:34:27.479Z,12.77
2023-02-09T05:36:53.931Z,11.73
2023-02-09T05:39:20.471Z,13.00
2023-02-09T05:42:05.189Z,11.80
2023-02-09T05:44:31.592Z,13.17
2023-02-09T05:46:57.962Z,15.17
2023-02-09T05:49:24.481Z,13.73
2023-02-09T05:51:51.101Z,10.50
2023-02-09T05:54:17.602Z,13.83
2023-02-09T05:56:44.520Z,14.50
2023-02-09T05:59:10.885Z,12.77
2023-02-09T06:01:37.486Z,15.17
2023-02-09T06:04:04.091Z,13.63
2023-02-09T06:06:30.402Z,14.00
2023-02-09T06:08:56.896Z,15.17
2023-02-09T06:11:23.364Z,13.40
2023-02-09T06:13:49.838Z,13.67
2023-02-09T06:16:16.283Z,16.80
2023-02-09T06:18:42.679Z,15.73
2023-02-09T06:21:09.025Z,18.50
2023-02-09T06:23:35.537Z,12.53
2023-02-09T06:26:10.279Z,13.90
2023-02-09T06:28:37.231Z,15.83
2023-02-09T06:31:05.274Z,14.37
2023-02-09T06:33:32.331Z,17.93
2023-02-09T06:35:58.841Z,16.80
2023-02-09T06:38:25.226Z,15.67
2023-02-09T06:40:51.614Z,17.50
2023-02-09T06:43:18.382Z,20.30
2023-02-09T06:45:44.686Z,19.10
2023-02-09T06:48:11.050Z,17.07
2023-02-09T06:50:38.958Z,19.17
2023-02-09T06:53:06.102Z,14.83
2023-02-09T06:55:33.381Z,14.07
2023-02-09T06:58:00.582Z,15.70
2023-02-09T07:00:27.343Z,14.80
2023-02-09T07:02:54.261Z,13.53
2023-02-09T07:05:21.319Z,13.07
2023-02-09T07:07:47.738Z,15.27
2023-02-09T07:10:16.328Z,14.20
2023-02-09T07:12:45.634Z,14.93
2023-02-09T07:15:13.784Z,17.87
2023-02-09T07:17:40.816Z,15.10
2023-02-09T07:20:09.089Z,17.80
2023-02-09T07:22:35.897Z,15.10
2023-02-09T07:25:02.296Z,16.83
2023-02-09T07:27:28.752Z,14.07
2023-02-09T07:29:55.096Z,16.50
2023-02-09T07:32:23.797Z,15.10
2023-02-09T07:34:50.406Z,17.30
2023-02-09T07:37:16.791Z,15.40
2023-02-09T07:39:43.401Z,15.80
2023-02-09T07:42:09.984Z,16.53
2023-02-09T07:44:36.323Z,15.03
2023-02-09T07:47:02.801Z,16.20
2023-02-09T07:49:29.181Z,19.93
2023-02-09T07:51:55.543Z,13.73
2023-02-09T07:54:22.078Z,16.23
2023-02-09T07:56:48.382Z,14.83
2023-02-09T07:59:14.856Z,13.50
2023-02-09T08:01:41.303Z,17.27
2023-02-09T08:04:07.699Z,15.83
2023-02-09T08:06:42.579Z,16.40
2023-02-09T08:09:10.883Z,18.33
2023-02-09T08:12:09.299Z,17.10
2023-02-09T08:14:44.191Z,15.27
2023-02-09T08:17:20.440Z,16.57
2023-02-09T08:19:52.637Z,20.17
2023-02-09T08:22:19.795Z,14.37
2023-02-09T08:24:46.250Z,16.03
2023-02-09T08:27:12.738Z,18.17
2023-02-09T08:29:39.440Z,15.67
2023-02-09T08:32:05.811Z,17.37
2023-02-09T08:34:32.197Z,15.93
2023-02-09T08:36:58.666Z,16.47
2023-02-09T08:39:25.050Z,16.90
2023-02-09T08:41:51.509Z,14.40
2023-02-09T08:44:17.850Z,16.73
2023-02-09T08:46:44.369Z,14.47
2023-02-09T08:49:10.879Z,16.97
2023-02-09T08:51:37.327Z,13.37
2023-02-09T08:54:03.679Z,14.73
2023-02-09T08:56:30.048Z,14.30
2023-02-09T08:58:56.403Z,17.43
2023-02-09T09:01:22.842Z,17.90
2023-02-09T09:03:49.550Z,17.50
2023-02-09T09:06:16.097Z,14.13
2023-02-09T09:08:42.585Z,14.50
2023-02-09T09:11:12.984Z,16.47
2023-02-09T09:13:41.247Z,14.73
2023-02-09T09:16:13.330Z,16.73
2023-02-09T09:18:39.695Z,14.50
2023-02-09T09:21:06.145Z,16.77
2023-02-09T09:23:32.463Z,17.47
2023-02-09T09:26:03.224Z,15.70
2023-02-09T09:28:30.960Z,18.30
2023-02-09T09:30:59.833Z,14.50
2023-02-09T09:33:26.292Z,16.50
2023-02-09T09:35:52.610Z,15.53
2023-02-09T09:38:19.291Z,16.37
2023-02-09T09:40:46.009Z,15.30
2023-02-09T09:43:32.387Z,14.07
2023-02-09T09:45:59.954Z,14.20
2023-02-09T09:48:35.236Z,16.43
2023-02-09T09:51:10.384Z,14.40
2023-02-09T09:53:37.922Z,18.43
2023-02-09T09:56:07.867Z,17.30
2023-02-09T09:58:35.294Z,16.07
2023-02-09T10:01:01.738Z,14.53
2023-02-09T10:03:28.117Z,13.13
2023-02-09T10:05:59.814Z,15.50
2023-02-09T10:08:35.557Z,16.27
2023-02-09T10:11:09.997Z,16.50
2023-02-09T10:13:44.179Z,15.23
2023-02-09T10:16:27.407Z,16.17
2023-02-09T10:18:59.132Z,16.03
2023-02-09T10:21:29.363Z,15.17
2023-02-09T10:24:01.600Z,16.00
2023-02-09T10:26:31.071Z,15.03
2023-02-09T10:29:19.021Z,16.40
2023-02-09T10:31:50.540Z,14.43
2023-02-09T10:34:21.152Z,13.90
2023-02-09T10:37:04.012Z,12.23
2023-02-09T10:39:34.169Z,14.97
2023-02-09T10:42:32.689Z,13.37
2023-02-09T10:45:07.037Z,12.50
2023-02-09T10:47:33.530Z,12.83
2023-02-09T10:50:14.048Z,14.80
2023-02-09T10:53:14.575Z,13.30
2023-02-09T10:55:42.493Z,16.73
2023-02-09T10:58:20.368Z,13.80
2023-02-09T11:01:00.593Z,14.03
2023-02-09T11:03:27.002Z,14.63
2023-02-09T11:06:16.638Z,15.43
2023-02-09T11:09:08.290Z,14.63
2023-02-09T11:11:40.258Z,14.00
2023-02-09T11:14:12.670Z,15.37
2023-02-09T11:16:54.473Z,15.10
2023-02-09T11:19:22.499Z,12.53
2023-02-09T11:22:13.042Z,14.80
2023-02-09T11:25:18.480Z,12.53
2023-02-09T11:27:57.021Z,14.43
2023-02-09T11:30:51.154Z,15.33
2023-02-09T11:33:41.517Z,11.87
2023-02-09T11:36:20.527Z,11.73
2023-02-09T11:38:56.144Z,13.53
2023-02-09T11:42:02.495Z,13.20
2023-02-09T11:44:44.030Z,16.20
2023-02-09T11:47:19.161Z,11.83
2023-02-09T11:49:49.172Z,10.90
2023-02-09T11:52:38.414Z,10.80
2023-02-09T11:55:45.448Z,12.30
2023-02-09T11:58:41.204Z,13.70
2023-02-09T12:01:15.780Z,12.20
2023-02-09T12:04:02.256Z,12.93
2023-02-09T12:06:36.306Z,13.37
2023-02-09T12:09:19.896Z,11.27
2023-02-09T12:12:09.095Z,9.23
2023-02-09T12:14:45.336Z,11.50
2023-02-09T12:17:25.924Z,10.70
2023-02-09T12:20:00.567Z,12.47
2023-02-09T12:22:33.040Z,9.17
2023-02-09T12:25:11.664Z,11.70
2023-02-09T12:27:41.981Z,12.07
2023-02-09T12:30:42.671Z,13.53
2023-02-09T12:33:24.359Z,10.47
2023-02-09T12:36:08.880Z,12.57
2023-02-09T12:38:54.466Z,13.27
2023-02-09T12:41:25.655Z,11.70
2023-02-09T12:44:10.380Z,12.57
2023-02-09T12:46:51.865Z,11.77
2023-02-09T12:49:21.145Z,13.30
2023-02-09T12:51:50.654Z,12.87
2023-02-09T12:54:26.160Z,16.03
2023-02-09T12:56:52.630Z,11.23
2023-02-09T12:59:22.675Z,12.93
2023-02-09T13:02:07.616Z,11.77
2023-02-09T13:04:38.769Z,14.23
2023-02-09T13:07:15.138Z,14.10
2023-02-09T13:09:42.828Z,13.23
2023-02-09T13:12:21.070Z,12.70
2023-02-09T13:14:50.228Z,12.17
2023-02-09T13:17:48.722Z,15.47
2023-02-09T13:20:36.080Z,10.73
2023-02-09T13:23:30.966Z,12.27
2023-02-09T13:26:18.459Z,13.53
2023-02-09T13:28:45.087Z,15.57
2023-02-09T13:31:35.549Z,15.67
2023-02-09T13:34:23.828Z,14.10
2023-02-09T13:37:10.477Z,12.20
2023-02-09T13:39:38.627Z,10.17
2023-02-09T13:42:22.611Z,12.77
2023-02-09T13:44:54.691Z,9.60
2023-02-09T13:47:21.965Z,12.40
2023-02-09T13:50:03.985Z,12.60
2023-02-09T13:52:37.684Z,14.57
2023-02-09T13:55:31.871Z,10.20
2023-02-09T13:58:05.226Z,12.73
2023-02-09T14:00:39.742Z,14.83
2023-02-09T14:03:13.880Z,12.07
2023-02-09T14:09:46.444Z,9.93
2023-02-09T14:12:19.461Z,12.50
2023-02-09T14:15:14.307Z,13.70
2023-02-09T14:17:50.819Z,9.57
2023-02-09T14:20:23.281Z,13.20
2023-02-09T14:22:58.468Z,9.70
2023-02-09T14:25:29.731Z,10.00
2023-02-09T14:27:57.306Z,11.27
2023-02-09T14:30:32.110Z,16.47
2023-02-09T14:33:02.494Z,12.83
2023-02-09T14:35:31.926Z,11.90
2023-02-09T14:38:00.989Z,9.53
2023-02-09T14:40:27.643Z,10.13
2023-02-09T14:43:10.966Z,10.00
2023-02-09T14:45:43.212Z,11.80
2023-02-09T14:48:18.007Z,9.57
2023-02-09T14:50:44.566Z,11.93
2023-02-09T14:53:14.115Z,10.87
2023-02-09T14:55:40.595Z,9.63
2023-02-09T14:58:11.624Z,12.57
2023-02-09T15:00:38.151Z,11.20
2023-02-09T15:03:04.605Z,10.77
2023-02-09T15:05:31.000Z,9.83
2023-02-09T15:08:05.735Z,10.07
2023-02-09T15:10:44.028Z,10.10
2023-02-09T15:13:13.111Z,12.97
2023-02-09T15:15:39.783Z,10.40
2023-02-09T15:18:07.188Z,11.20
2023-02-09T15:20:34.012Z,14.83
2023-02-09T15:23:00.780Z,14.63
2023-02-09T15:25:28.787Z,12.10
2023-02-09T15:27:59.980Z,12.70
2023-02-09T15:30:30.598Z,9.77
2023-02-09T15:32:57.067Z,12.40
2023-02-09T15:35:26.268Z,12.33
2023-02-09T15:37:59.617Z,10.90
2023-02-09T15:40:52.823Z,13.50
2023-02-09T15:43:40.100Z,11.60
2023-02-09T15:46:26.522Z,11.97
2023-02-09T15:48:54.124Z,22.23
2023-02-09T15:51:22.019Z,17.57
2023-02-09T15:53:48.960Z,11.27
2023-02-09T15:56:15.933Z,11.20
2023-02-09T15:58:45.793Z,9.67
2023-02-09T16:01:15.556Z,14.83
2023-02-09T16:03:42.909Z,9.63
2023-02-09T16:06:22.113Z,10.73
2023-02-09T16:08:48.942Z,14.57
2023-02-09T16:11:21.758Z,13.37
2023-02-09T16:13:49.075Z,13.33
2023-02-09T16:16:17.902Z,12.93
2023-02-09T16:18:45.692Z,11.53
2023-02-09T16:21:22.142Z,12.67
2023-02-09T16:23:48.797Z,11.37
2023-02-09T16:26:15.224Z,15.03
2023-02-09T16:28:41.684Z,14.63
2023-02-09T16:31:10.389Z,17.73
2023-02-09T16:33:38.747Z,11.03
2023-02-09T16:36:13.652Z,12.97
2023-02-09T16:38:40.121Z,14.80
2023-02-09T16:41:26.662Z,17.20
2023-02-09T16:43:53.126Z,12.50
2023-02-09T16:46:19.531Z,13.30
2023-02-09T16:48:46.600Z,19.40
2023-02-09T16:51:14.768Z,14.63
2023-02-09T16:53:48.108Z,16.07
2023-02-09T16:56:15.627Z,14.83
2023-02-09T16:58:42.953Z,14.20
2023-02-09T17:01:19.496Z,17.47
2023-02-09T17:03:54.160Z,15.00
2023-02-09T17:06:23.586Z,13.17
2023-02-09T17:08:50.960Z,15.30
2023-02-09T17:11:23.137Z,16.20
2023-02-09T17:13:50.057Z,15.10
2023-02-09T17:16:18.809Z,11.53
2023-02-09T17:18:47.145Z,14.93
2023-02-09T17:21:28.519Z,16.87
2023-02-09T17:23:57.272Z,18.83
2023-02-09T17:26:24.736Z,14.87
2023-02-09T17:28:51.740Z,18.07
2023-02-09T17:31:27.711Z,14.93
2023-02-09T17:33:56.735Z,20.10
2023-02-09T17:36:28.444Z,13.20
2023-02-09T17:38:57.380Z,13.90
2023-02-09T17:41:26.771Z,17.80
2023-02-09T17:43:53.584Z,14.47
2023-02-09T17:46:21.195Z,16.23
2023-02-09T17:48:48.490Z,15.63
2023-02-09T17:51:23.407Z,17.17
2023-02-09T17:53:49.901Z,15.63
2023-02-09T17:56:16.878Z,18.80
2023-02-09T17:58:44.634Z,14.37
2023-02-09T18:01:26.339Z,13.77
2023-02-09T18:03:55.490Z,17.67
2023-02-09T18:06:27.513Z,26.30
2023-02-09T18:08:53.898Z,24.07
2023-02-09T18:11:20.262Z,28.47
2023-02-09T18:13:46.676Z,24.40
2023-02-09T18:16:13.586Z,26.63
2023-02-09T18:18:40.071Z,27.77
2023-02-09T18:21:09.002Z,24.13
2023-02-09T18:23:35.345Z,24.03
2023-02-09T18:26:01.756Z,24.77
2023-02-09T18:28:28.244Z,15.30
2023-02-09T18:30:54.790Z,23.67
2023-02-09T18:33:21.116Z,23.63
2023-02-09T18:35:47.842Z,25.47
2023-02-09T18:38:15.148Z,23.17
2023-02-09T18:40:41.540Z,25.87
2023-02-09T18:43:08.036Z,24.17
2023-02-09T18:45:34.734Z,23.53
2023-02-09T18:48:01.319Z,19.57
2023-02-09T18:50:30.482Z,18.47
2023-02-09T18:53:00.444Z,20.13
2023-02-09T18:55:30.630Z,22.17
2023-02-09T18:57:59.570Z,24.60
2023-02-09T19:00:26.630Z,17.83
2023-02-09T19:02:57.376Z,17.67
2023-02-09T19:05:26.241Z,17.30
2023-02-09T19:07:53.174Z,18.13
2023-02-09T19:10:20.793Z,17.23
2023-02-09T19:12:47.328Z,21.53
2023-02-09T19:15:18.755Z,18.77
2023-02-09T19:17:45.420Z,18.47
2023-02-09T19:20:17.669Z,19.40
2023-02-09T19:22:44.518Z,26.37
2023-02-09T19:25:10.938Z,30.30
2023-02-09T19:27:37.447Z,25.20
2023-02-09T19:30:04.240Z,21.90
2023-02-09T19:32:30.648Z,23.60
2023-02-09T19:34:57.195Z,21.90
2023-02-09T19:37:24.087Z,19.43
2023-02-09T19:40:00.329Z,26.13
2023-02-09T19:42:29.618Z,19.63
2023-02-09T19:44:56.262Z,20.47
2023-02-09T19:47:25.825Z,19.83
2023-02-09T19:49:57.911Z,18.53
2023-02-09T19:52:25.781Z,21.33
2023-02-09T19:54:52.311Z,18.70
2023-02-09T19:57:20.870Z,17.93
2023-02-09T19:59:47.665Z,19.30
2023-02-09T20:02:15.471Z,19.97
2023-02-09T20:04:43.113Z,21.67
2023-02-09T20:07:13.958Z,21.33
2023-02-09T20:09:40.388Z,20.20
2023-02-09T20:12:06.859Z,17.47
2023-02-09T20:14:33.665Z,21.47
2023-02-09T20:17:00.426Z,21.77
2023-02-09T20:19:27.114Z,24.37
2023-02-09T20:21:53.590Z,19.80
2023-02-09T20:24:20.084Z,20.23
2023-02-09T20:26:46.748Z,19.43
2023-02-09T20:29:13.754Z,19.20
2023-02-09T20:31:41.398Z,20.20
2023-02-09T20:34:11.436Z,18.57
2023-02-09T20:36:39.754Z,20.40
2023-02-09T20:39:09.908Z,20.83
2023-02-09T20:41:36.356Z,17.83
2023-02-09T20:44:21.478Z,22.87
2023-02-09T20:46:56.888Z,20.00
2023-02-09T20:49:36.213Z,22.67
2023-02-09T20:52:02.620Z,18.70
2023-02-09T20:54:31.669Z,23.00
2023-02-09T20:56:58.893Z,21.40
2023-02-09T20:59:25.393Z,18.33
2023-02-09T21:01:52.302Z,20.43
2023-02-09T21:04:18.716Z,21.87
2023-02-09T21:06:45.415Z,23.83
2023-02-09T21:09:14.566Z,19.50
2023-02-09T21:11:42.084Z,19.97
2023-02-09T21:14:13.475Z,47.97
2023-02-09T21:16:55.289Z,49.50
2023-02-09T21:19:23.765Z,34.13
2023-02-09T21:21:50.459Z,20.80
2023-02-09T21:24:19.104Z,21.73
2023-02-09T21:26:45.882Z,20.80
2023-02-09T21:29:13.727Z,21.83
2023-02-09T21:31:40.756Z,24.97
2023-02-09T21:34:07.300Z,24.77
2023-02-09T21:36:33.723Z,20.83
2023-02-09T21:39:00.754Z,20.10
2023-02-09T21:41:45.948Z,24.47
2023-02-09T21:44:12.968Z,22.80
2023-02-09T21:46:39.343Z,22.40
2023-02-09T21:49:06.268Z,22.40
2023-02-09T21:51:32.615Z,34.37
2023-02-09T21:53:59.313Z,22.33
2023-02-09T21:56:26.085Z,24.23
2023-02-09T21:58:52.691Z,20.30
2023-02-09T22:01:19.139Z,23.40
2023-02-09T22:03:49.502Z,20.83
2023-02-09T22:06:15.917Z,24.70
2023-02-09T22:08:42.497Z,21.00
2023-02-09T22:11:08.926Z,21.50
2023-02-09T22:13:35.404Z,26.03
2023-02-09T22:16:08.315Z,24.80
2023-02-09T22:18:34.969Z,25.77
2023-02-09T22:21:01.761Z,22.57
2023-02-09T22:23:28.320Z,23.73
2023-02-09T22:25:59.658Z,27.60
2023-02-09T22:28:26.582Z,23.33
2023-02-09T22:30:53.232Z,22.53
2023-02-09T22:33:20.681Z,23.43
2023-02-09T22:35:48.478Z,21.83
2023-02-09T22:38:15.185Z,22.00
2023-02-09T22:40:41.656Z,21.80
2023-02-09T22:43:08.059Z,25.20
2023-02-09T22:45:34.408Z,26.93
2023-02-09T22:48:00.762Z,24.67
2023-02-09T22:50:27.152Z,24.43
2023-02-09T22:52:53.590Z,25.33
2023-02-09T22:55:19.956Z,20.93
2023-02-09T22:57:46.280Z,24.00
2023-02-09T23:00:15.164Z,24.47
2023-02-09T23:02:41.579Z,23.93
2023-02-09T23:05:08.201Z,23.13
2023-02-09T23:07:34.535Z,24.23
2023-02-09T23:10:00.888Z,22.53
2023-02-09T23:12:27.238Z,23.13
2023-02-09T23:14:54.782Z,27.37
2023-02-09T23:17:21.303Z,23.93
2023-02-09T23:19:47.767Z,24.87
2023-02-09T23:22:14.159Z,23.33
2023-02-09T23:24:40.706Z,22.73
2023-02-09T23:27:07.171Z,24.57
2023-02-09T23:29:33.641Z,28.27
2023-02-09T23:31:59.987Z,28.97
2023-02-09T23:34:26.373Z,23.90
2023-02-09T23:36:52.912Z,25.93
2023-02-09T23:39:22.308Z,26.93
2023-02-09T23:41:49.281Z,24.17
2023-02-09T23:44:15.856Z,25.00
2023-02-09T23:46:42.408Z,28.63
2023-02-09T23:49:08.777Z,30.43
2023-02-09T23:51:35.828Z,26.70
2023-02-09T23:54:04.813Z,26.10
2023-02-09T23:56:36.894Z,26.50
2023-02-09T23:59:05.667Z,24.80
